Time;durP1;ratioP1;P1;durP2;ratioP2;P2;SDS_P1;SDS_P2;PMS_P1;PMS_P2;Temp;Humidity;BMP_temperature;BMP_pressure;BME280_temperature;BME280_humidity;BME280_pressure;Samples;Min_cycle;Max_cycle;Signal;HPM_P1;HPM_P2
2022/01/21 00:01:11;;;;;;;23.07;5.27;;;;;;;;;;5073961;28;20124;-90
2022/01/21 00:03:37;;;;;;;24.90;6.30;;;;;;;;;;5074033;28;20621;-90
2022/01/21 00:06:06;;;;;;;25.77;5.97;;;;;;;;;;5073843;28;20199;-89
2022/01/21 00:08:31;;;;;;;23.90;5.80;;;;;;;;;;5073840;28;20606;-89
2022/01/21 00:10:56;;;;;;;34.70;7.20;;;;;;;;;;5073826;28;20024;-89
2022/01/21 00:13:33;;;;;;;26.00;7.37;;;;;;;;;;5073773;28;20051;-90
2022/01/21 00:15:58;;;;;;;21.63;5.77;;;;;;;;;;5073818;28;20031;-89
2022/01/21 00:18:23;;;;;;;22.50;5.23;;;;;;;;;;5073692;28;20013;-88
2022/01/21 00:31:44;;;;;;;12.03;3.17;;;;;;;;;;5055123;28;20078;-90
2022/01/21 00:34:09;;;;;;;10.97;3.07;;;;;;;;;;5053417;28;20021;-90
2022/01/21 00:36:35;;;;;;;17.87;3.63;;;;;;;;;;5054752;28;20013;-89
2022/01/21 00:39:04;;;;;;;10.67;3.23;;;;;;;;;;5054047;28;20028;-90
2022/01/21 00:41:32;;;;;;;15.67;3.07;;;;;;;;;;5053099;28;20021;-89
2022/01/21 00:43:58;;;;;;;17.50;3.30;;;;;;;;;;5055520;28;20029;-90
2022/01/21 00:46:23;;;;;;;18.73;4.03;;;;;;;;;;5072846;28;20383;-90
2022/01/21 00:48:48;;;;;;;17.87;3.37;;;;;;;;;;5073573;28;20009;-90
2022/01/21 00:51:13;;;;;;;17.73;3.30;;;;;;;;;;5073172;28;20482;-90
2022/01/21 00:53:39;;;;;;;17.00;3.07;;;;;;;;;;5074249;28;20031;-89
2022/01/21 00:56:04;;;;;;;11.80;3.00;;;;;;;;;;5073314;28;20020;-90
2022/01/21 00:58:29;;;;;;;17.37;3.00;;;;;;;;;;5073175;28;20030;-89
2022/01/21 01:00:54;;;;;;;11.30;2.60;;;;;;;;;;5073058;28;20506;-90
2022/01/21 01:03:20;;;;;;;14.70;3.40;;;;;;;;;;5072697;28;20016;-90
2022/01/21 01:05:47;;;;;;;17.47;3.40;;;;;;;;;;5073900;28;20074;-90
2022/01/21 01:08:13;;;;;;;14.07;3.47;;;;;;;;;;5072788;28;20012;-90
2022/01/21 01:21:45;;;;;;;19.97;4.03;;;;;;;;;;5074313;28;20023;-90
2022/01/21 01:29:23;;;;;;;16.60;2.93;;;;;;;;;;5073976;28;20178;-90
2022/01/21 01:31:49;;;;;;;11.87;3.13;;;;;;;;;;5073678;28;20027;-90
2022/01/21 01:34:14;;;;;;;12.63;3.00;;;;;;;;;;5072592;28;20020;-90
2022/01/21 01:36:42;;;;;;;15.03;2.63;;;;;;;;;;5073793;28;20024;-90
2022/01/21 01:41:38;;;;;;;14.57;2.90;;;;;;;;;;5053832;28;20116;-90
2022/01/21 01:52:00;;;;;;;12.03;2.60;;;;;;;;;;5065627;28;20020;-90
2022/01/21 01:54:27;;;;;;;15.13;2.63;;;;;;;;;;5059263;28;20472;-90
2022/01/21 01:56:53;;;;;;;9.20;1.93;;;;;;;;;;5059248;28;20082;-90
2022/01/21 01:59:19;;;;;;;13.87;2.30;;;;;;;;;;5059005;28;20056;-90
2022/01/21 02:01:51;;;;;;;9.47;2.07;;;;;;;;;;5059284;28;20380;-90
2022/01/21 02:04:16;;;;;;;12.45;2.63;;;;;;;;;;5058840;28;20137;-90
2022/01/21 02:06:41;;;;;;;9.07;2.03;;;;;;;;;;5062187;28;20445;-90
2022/01/21 02:09:07;;;;;;;8.00;2.17;;;;;;;;;;5079212;28;20066;-91
2022/01/21 02:11:32;;;;;;;10.23;1.97;;;;;;;;;;5079142;28;20383;-90
2022/01/21 02:14:00;;;;;;;9.87;1.97;;;;;;;;;;5078846;28;20030;-90
2022/01/21 02:21:36;;;;;;;13.50;2.27;;;;;;;;;;5080133;28;20170;-90
2022/01/21 02:24:11;;;;;;;13.37;1.93;;;;;;;;;;5078965;28;20039;-90
2022/01/21 02:26:37;;;;;;;13.13;2.60;;;;;;;;;;5078866;28;20077;-90
2022/01/21 02:29:04;;;;;;;5.50;1.60;;;;;;;;;;5078932;28;20525;-90
2022/01/21 02:31:29;;;;;;;10.73;2.37;;;;;;;;;;5078786;28;20044;-90
2022/01/21 02:33:55;;;;;;;12.97;2.10;;;;;;;;;;5078778;28;20024;-90
2022/01/21 02:36:20;;;;;;;11.77;1.70;;;;;;;;;;5078999;28;20149;-91
2022/01/21 02:38:45;;;;;;;12.37;2.37;;;;;;;;;;5078748;28;20025;-91
2022/01/21 02:41:11;;;;;;;13.70;2.57;;;;;;;;;;5078783;28;20021;-90
2022/01/21 02:43:36;;;;;;;10.70;2.10;;;;;;;;;;5073193;28;20480;-91
2022/01/21 02:46:05;;;;;;;9.07;1.80;;;;;;;;;;5058569;28;20025;-90
2022/01/21 02:48:35;;;;;;;10.77;1.90;;;;;;;;;;5058594;28;20021;-90
2022/01/21 02:51:00;;;;;;;9.97;2.13;;;;;;;;;;5059845;28;20025;-90
2022/01/21 02:53:38;;;;;;;11.67;2.37;;;;;;;;;;5058409;28;20358;-91
2022/01/21 02:56:03;;;;;;;13.73;2.50;;;;;;;;;;5070242;28;20027;-90
2022/01/21 02:58:28;;;;;;;7.23;2.10;;;;;;;;;;5078599;28;20115;-90
2022/01/21 03:00:54;;;;;;;14.33;3.00;;;;;;;;;;5078609;28;20024;-90
2022/01/21 03:03:19;;;;;;;10.80;2.70;;;;;;;;;;5075488;28;20428;-90
2022/01/21 03:05:44;;;;;;;13.37;2.67;;;;;;;;;;5075789;28;20500;-91
2022/01/21 03:08:10;;;;;;;15.30;2.77;;;;;;;;;;5075263;28;20114;-90
2022/01/21 03:10:35;;;;;;;14.53;3.30;;;;;;;;;;5075420;28;20016;-90
2022/01/21 03:13:00;;;;;;;16.37;2.90;;;;;;;;;;5075089;28;20024;-90
2022/01/21 03:15:25;;;;;;;11.93;2.53;;;;;;;;;;5075414;28;20070;-90
2022/01/21 03:17:50;;;;;;;12.60;3.23;;;;;;;;;;5061989;28;20036;-91
2022/01/21 03:20:16;;;;;;;20.63;3.23;;;;;;;;;;5055186;28;20479;-91
2022/01/21 03:22:41;;;;;;;15.00;3.17;;;;;;;;;;5054986;28;20108;-91
2022/01/21 03:25:07;;;;;;;16.30;2.90;;;;;;;;;;5055043;28;20357;-90
2022/01/21 03:27:32;;;;;;;13.50;2.80;;;;;;;;;;5054895;28;20079;-91
2022/01/21 03:29:58;;;;;;;14.70;2.83;;;;;;;;;;5054907;28;20013;-90
2022/01/21 03:32:25;;;;;;;9.77;3.10;;;;;;;;;;5064834;28;20476;-91
2022/01/21 03:34:50;;;;;;;14.17;3.40;;;;;;;;;;5074929;28;20042;-91
2022/01/21 03:37:15;;;;;;;12.47;3.13;;;;;;;;;;5074756;28;20016;-90
2022/01/21 03:39:40;;;;;;;18.57;3.50;;;;;;;;;;5074841;28;20372;-90
2022/01/21 03:42:06;;;;;;;14.70;3.63;;;;;;;;;;5075021;28;20025;-91
2022/01/21 03:44:31;;;;;;;17.30;3.60;;;;;;;;;;5074374;28;20025;-90
2022/01/21 03:46:56;;;;;;;15.20;3.13;;;;;;;;;;5074556;28;20472;-90
2022/01/21 03:49:22;;;;;;;14.60;3.10;;;;;;;;;;5074574;28;20012;-92
2022/01/21 03:51:47;;;;;;;13.87;3.93;;;;;;;;;;5074623;28;20047;-90
2022/01/21 03:54:12;;;;;;;18.63;3.40;;;;;;;;;;5074559;28;20380;-90
2022/01/21 03:56:39;;;;;;;14.40;3.40;;;;;;;;;;5074605;28;20024;-91
2022/01/21 03:59:04;;;;;;;16.87;3.60;;;;;;;;;;5075455;28;20078;-91
2022/01/21 04:01:29;;;;;;;15.23;3.60;;;;;;;;;;5075437;28;20383;-91
2022/01/21 04:03:55;;;;;;;7.90;3.03;;;;;;;;;;5074473;28;20028;-90
2022/01/21 04:06:20;;;;;;;8.20;3.23;;;;;;;;;;5074352;28;20111;-90
2022/01/21 04:08:45;;;;;;;12.57;3.60;;;;;;;;;;5074508;28;20512;-90
2022/01/21 04:11:14;;;;;;;13.20;4.10;;;;;;;;;;5075163;28;20376;-90
2022/01/21 04:13:39;;;;;;;15.90;4.53;;;;;;;;;;5072707;28;20020;-90
2022/01/21 04:16:04;;;;;;;13.43;4.23;;;;;;;;;;5074065;28;20024;-90
2022/01/21 04:18:30;;;;;;;11.70;3.53;;;;;;;;;;5074134;28;20025;-91
2022/01/21 04:20:56;;;;;;;15.37;3.67;;;;;;;;;;5073848;28;20032;-90
2022/01/21 04:23:22;;;;;;;18.20;4.27;;;;;;;;;;5073877;28;20024;-90
2022/01/21 04:25:47;;;;;;;13.80;3.73;;;;;;;;;;5073956;28;20490;-90
2022/01/21 04:28:13;;;;;;;14.90;4.10;;;;;;;;;;5074918;28;20070;-91
2022/01/21 04:30:38;;;;;;;11.17;3.00;;;;;;;;;;5073596;28;20426;-90
2022/01/21 04:33:04;;;;;;;14.87;3.70;;;;;;;;;;5074836;28;20100;-92
2022/01/21 04:35:30;;;;;;;15.57;3.50;;;;;;;;;;5073508;28;20112;-90
2022/01/21 04:37:59;;;;;;;12.60;3.27;;;;;;;;;;5073824;28;20028;-91
2022/01/21 04:40:29;;;;;;;6.97;3.13;;;;;;;;;;5073490;28;20474;-90
2022/01/21 04:48:23;;;;;;;15.47;3.47;;;;;;;;;;5074920;28;20036;-90
2022/01/21 04:50:54;;;;;;;17.33;3.80;;;;;;;;;;5073346;28;20024;-91
2022/01/21 04:53:20;;;;;;;14.20;3.53;;;;;;;;;;5074547;28;20067;-90
2022/01/21 04:55:45;;;;;;;10.37;3.33;;;;;;;;;;5073319;28;20016;-90
2022/01/21 04:58:10;;;;;;;13.10;3.40;;;;;;;;;;5073212;28;20070;-91
2022/01/21 05:00:36;;;;;;;10.80;3.57;;;;;;;;;;5073321;28;20017;-91
2022/01/21 05:03:01;;;;;;;11.73;3.43;;;;;;;;;;5073244;28;20035;-90
2022/01/21 05:05:26;;;;;;;18.63;3.37;;;;;;;;;;5073254;28;20032;-90
2022/01/21 05:07:53;;;;;;;13.43;3.97;;;;;;;;;;5073920;28;20456;-90
2022/01/21 05:10:18;;;;;;;10.17;3.40;;;;;;;;;;5073107;28;20065;-90
2022/01/21 05:12:43;;;;;;;11.57;3.13;;;;;;;;;;5073091;28;20012;-90
2022/01/21 05:15:16;;;;;;;9.53;3.47;;;;;;;;;;5074017;28;20009;-90
2022/01/21 05:17:45;;;;;;;17.77;3.60;;;;;;;;;;5072997;28;20042;-90
2022/01/21 05:20:11;;;;;;;10.97;2.60;;;;;;;;;;5072877;28;20047;-90
2022/01/21 05:22:36;;;;;;;9.20;2.90;;;;;;;;;;5072408;28;20020;-90
2022/01/21 05:25:01;;;;;;;10.80;3.07;;;;;;;;;;5072582;28;20020;-91
2022/01/21 05:27:27;;;;;;;12.10;3.67;;;;;;;;;;5072471;28;20387;-90
2022/01/21 05:29:52;;;;;;;18.70;3.77;;;;;;;;;;5072730;28;20021;-90
2022/01/21 05:32:17;;;;;;;11.97;3.27;;;;;;;;;;5072776;28;20018;-90
2022/01/21 05:34:43;;;;;;;11.40;2.83;;;;;;;;;;5072505;28;20061;-90
2022/01/21 05:37:08;;;;;;;17.10;5.00;;;;;;;;;;5072903;28;20024;-91
2022/01/21 05:39:33;;;;;;;10.03;3.40;;;;;;;;;;5072558;28;20016;-91
2022/01/21 05:42:00;;;;;;;7.90;2.83;;;;;;;;;;5072600;28;20024;-90
2022/01/21 05:46:56;;;;;;;13.43;3.50;;;;;;;;;;5074119;28;20107;-90
2022/01/21 05:49:22;;;;;;;12.37;3.17;;;;;;;;;;5072759;28;20528;-90
2022/01/21 05:51:48;;;;;;;10.33;3.47;;;;;;;;;;5072471;28;20033;-91
2022/01/21 05:54:14;;;;;;;10.33;3.40;;;;;;;;;;5073706;28;20100;-90
2022/01/21 05:56:39;;;;;;;15.93;3.37;;;;;;;;;;5072525;28;20473;-91
2022/01/21 05:59:05;;;;;;;13.17;3.57;;;;;;;;;;5072382;28;20024;-90
2022/01/21 06:01:31;;;;;;;6.90;3.27;;;;;;;;;;5071743;28;20032;-90
2022/01/21 06:03:57;;;;;;;11.67;3.67;;;;;;;;;;5072500;28;20036;-90
2022/01/21 06:06:22;;;;;;;8.30;3.67;;;;;;;;;;5072377;28;20377;-90
2022/01/21 06:08:47;;;;;;;9.03;3.23;;;;;;;;;;5072560;28;20521;-91
2022/01/21 06:11:12;;;;;;;8.70;3.03;;;;;;;;;;5066735;28;20021;-90
2022/01/21 06:13:38;;;;;;;10.73;4.10;;;;;;;;;;5069524;28;20531;-91
2022/01/21 06:16:04;;;;;;;12.30;3.90;;;;;;;;;;5072461;28;20023;-90
2022/01/21 06:18:29;;;;;;;9.30;3.73;;;;;;;;;;5072568;28;20025;-91
2022/01/21 06:20:54;;;;;;;13.43;4.07;;;;;;;;;;5072507;28;20115;-91
2022/01/21 06:23:19;;;;;;;18.80;4.63;;;;;;;;;;5072320;28;20080;-90
2022/01/21 06:25:44;;;;;;;11.90;4.37;;;;;;;;;;5072284;28;20066;-90
2022/01/21 06:28:10;;;;;;;14.07;5.20;;;;;;;;;;5072268;28;20028;-91
2022/01/21 06:30:35;;;;;;;17.57;4.97;;;;;;;;;;5072207;28;20052;-90
2022/01/21 06:33:00;;;;;;;10.53;4.27;;;;;;;;;;5072130;28;20074;-91
2022/01/21 06:35:26;;;;;;;12.13;4.90;;;;;;;;;;5072364;28;20028;-91
2022/01/21 06:37:51;;;;;;;11.07;4.83;;;;;;;;;;5072933;28;20078;-91
2022/01/21 06:40:19;;;;;;;13.87;4.80;;;;;;;;;;5075693;28;20040;-91
2022/01/21 06:42:45;;;;;;;17.37;5.30;;;;;;;;;;5076063;28;20032;-90
2022/01/21 06:45:10;;;;;;;13.23;4.17;;;;;;;;;;5075764;28;20021;-91
2022/01/21 06:47:36;;;;;;;15.60;4.67;;;;;;;;;;5075766;28;20048;-90
2022/01/21 06:50:01;;;;;;;15.67;5.83;;;;;;;;;;5076051;28;20456;-90
2022/01/21 06:52:27;;;;;;;10.23;5.00;;;;;;;;;;5075960;28;20020;-90
2022/01/21 06:54:53;;;;;;;13.00;4.80;;;;;;;;;;5075850;28;20068;-91
2022/01/21 06:57:18;;;;;;;13.00;5.53;;;;;;;;;;5075602;28;20074;-91
2022/01/21 06:59:43;;;;;;;13.40;5.33;;;;;;;;;;5075264;28;20029;-91
2022/01/21 07:02:08;;;;;;;13.03;5.07;;;;;;;;;;5057089;28;20021;-90
2022/01/21 07:04:34;;;;;;;16.17;5.10;;;;;;;;;;5055558;28;20031;-92
2022/01/21 07:06:59;;;;;;;14.63;5.70;;;;;;;;;;5056543;28;20023;-93
2022/01/21 07:09:25;;;;;;;20.03;6.03;;;;;;;;;;5055583;28;20025;-92
2022/01/21 07:11:51;;;;;;;14.60;5.17;;;;;;;;;;5055953;28;20113;-92
2022/01/21 07:14:16;;;;;;;13.70;5.03;;;;;;;;;;5056602;28;20045;-92
2022/01/21 07:16:41;;;;;;;9.43;5.30;;;;;;;;;;5055413;28;20107;-92
2022/01/21 07:19:06;;;;;;;15.40;6.33;;;;;;;;;;5055276;28;20035;-92
2022/01/21 07:21:31;;;;;;;17.40;5.87;;;;;;;;;;5055190;28;20421;-92
2022/01/21 07:23:57;;;;;;;14.30;6.07;;;;;;;;;;5055198;28;20388;-92
2022/01/21 07:26:22;;;;;;;11.60;6.03;;;;;;;;;;5055208;28;20021;-92
2022/01/21 07:28:47;;;;;;;19.43;6.27;;;;;;;;;;5065973;28;20024;-92
2022/01/21 07:31:12;;;;;;;20.20;6.60;;;;;;;;;;5075170;28;20097;-91
2022/01/21 07:33:38;;;;;;;22.43;8.50;;;;;;;;;;5075337;28;20021;-92
2022/01/21 07:36:04;;;;;;;19.03;7.90;;;;;;;;;;5075038;28;20016;-92
2022/01/21 07:38:29;;;;;;;32.97;12.43;;;;;;;;;;5075005;28;20021;-92
2022/01/21 07:40:54;;;;;;;33.17;12.57;;;;;;;;;;5076099;28;20075;-92
2022/01/21 07:43:20;;;;;;;44.83;20.47;;;;;;;;;;5074633;28;20544;-92
2022/01/21 07:45:45;;;;;;;46.63;19.00;;;;;;;;;;5074821;28;20017;-93
2022/01/21 07:48:10;;;;;;;40.27;18.17;;;;;;;;;;5075689;28;20021;-92
2022/01/21 07:50:36;;;;;;;36.30;17.40;;;;;;;;;;5074629;28;20025;-92
2022/01/21 07:53:01;;;;;;;39.10;14.07;;;;;;;;;;5074995;28;20032;-93
2022/01/21 07:55:26;;;;;;;31.63;13.77;;;;;;;;;;5074147;28;20024;-92
2022/01/21 07:57:51;;;;;;;20.73;9.97;;;;;;;;;;5074705;28;20027;-92
2022/01/21 08:00:17;;;;;;;24.30;11.40;;;;;;;;;;5074345;28;20055;-92
2022/01/21 08:02:43;;;;;;;21.43;8.63;;;;;;;;;;5074506;28;20020;-91
2022/01/21 08:05:08;;;;;;;20.43;9.40;;;;;;;;;;5074486;28;20024;-92
2022/01/21 08:07:33;;;;;;;26.97;9.80;;;;;;;;;;5068026;28;20044;-92
2022/01/21 08:09:58;;;;;;;17.20;9.10;;;;;;;;;;5072189;28;20052;-92
2022/01/21 08:12:24;;;;;;;20.47;9.57;;;;;;;;;;5058310;28;20024;-92
2022/01/21 08:14:49;;;;;;;23.43;10.27;;;;;;;;;;5072458;28;20047;-92
2022/01/21 08:17:14;;;;;;;27.00;11.97;;;;;;;;;;5074190;28;20025;-92
2022/01/21 08:19:40;;;;;;;21.13;10.13;;;;;;;;;;5074343;28;20067;-92
2022/01/21 08:22:05;;;;;;;20.63;9.53;;;;;;;;;;5073954;28;20074;-91
2022/01/21 08:24:30;;;;;;;21.30;8.50;;;;;;;;;;5074234;28;20032;-92
2022/01/21 08:26:56;;;;;;;18.57;7.93;;;;;;;;;;5074058;28;20055;-92
2022/01/21 08:29:21;;;;;;;18.30;8.80;;;;;;;;;;5073856;28;20047;-92
2022/01/21 08:31:46;;;;;;;18.73;10.00;;;;;;;;;;5074129;28;20056;-92
2022/01/21 08:34:15;;;;;;;21.63;9.47;;;;;;;;;;5073909;28;20471;-92
2022/01/21 08:36:40;;;;;;;21.03;8.73;;;;;;;;;;5073816;28;20088;-92
2022/01/21 08:39:05;;;;;;;23.17;9.83;;;;;;;;;;5075011;28;20048;-91
2022/01/21 08:41:31;;;;;;;19.47;8.93;;;;;;;;;;5073370;28;20043;-92
2022/01/21 08:43:56;;;;;;;26.77;9.70;;;;;;;;;;5073456;28;20439;-92
2022/01/21 08:46:22;;;;;;;20.73;10.00;;;;;;;;;;5069847;28;20029;-92
2022/01/21 08:48:47;;;;;;;27.93;9.40;;;;;;;;;;5054754;28;20392;-93
2022/01/21 08:51:18;;;;;;;25.20;11.20;;;;;;;;;;5073331;28;20021;-92
2022/01/21 08:53:45;;;;;;;18.30;9.93;;;;;;;;;;5073575;28;20476;-92
2022/01/21 08:56:12;;;;;;;20.27;8.70;;;;;;;;;;5073580;28;20040;-92
2022/01/21 08:58:37;;;;;;;28.37;10.50;;;;;;;;;;5073555;28;20027;-92
2022/01/21 09:01:03;;;;;;;22.70;9.93;;;;;;;;;;5072351;28;20009;-92
2022/01/21 09:03:28;;;;;;;44.80;14.10;;;;;;;;;;5073302;28;20020;-92
2022/01/21 09:05:53;;;;;;;53.83;16.63;;;;;;;;;;5073328;28;20028;-92
2022/01/21 09:08:21;;;;;;;24.67;10.33;;;;;;;;;;5074397;28;20141;-91
2022/01/21 09:10:46;;;;;;;18.90;6.07;;;;;;;;;;5073006;28;20468;-92
2022/01/21 09:13:11;;;;;;;16.90;6.70;;;;;;;;;;5073234;28;20021;-92
2022/01/21 09:15:37;;;;;;;12.73;6.80;;;;;;;;;;5073489;28;20387;-91
2022/01/21 09:18:05;;;;;;;18.87;6.67;;;;;;;;;;5073161;28;20030;-91
2022/01/21 09:20:31;;;;;;;22.30;9.57;;;;;;;;;;5072916;28;20030;-91
2022/01/21 09:22:56;;;;;;;23.43;10.40;;;;;;;;;;5074443;28;20032;-90
2022/01/21 09:25:21;;;;;;;30.93;10.00;;;;;;;;;;5072803;28;20054;-91
2022/01/21 09:27:46;;;;;;;39.10;11.43;;;;;;;;;;5072752;28;20020;-91
2022/01/21 09:30:12;;;;;;;33.73;10.77;;;;;;;;;;5072560;28;20016;-90
2022/01/21 09:32:37;;;;;;;23.87;7.73;;;;;;;;;;5072659;28;20020;-91
2022/01/21 09:35:03;;;;;;;33.20;10.23;;;;;;;;;;5072808;28;20398;-91
2022/01/21 09:37:29;;;;;;;17.90;5.70;;;;;;;;;;5072713;28;20131;-91
2022/01/21 09:39:54;;;;;;;19.03;6.20;;;;;;;;;;5072898;28;20048;-91
2022/01/21 09:42:20;;;;;;;22.33;5.67;;;;;;;;;;5072771;28;20115;-91
2022/01/21 09:44:46;;;;;;;16.63;5.03;;;;;;;;;;5072268;28;20020;-90
2022/01/21 09:47:15;;;;;;;24.50;5.77;;;;;;;;;;5072604;28;20023;-91
2022/01/21 09:49:42;;;;;;;29.80;9.37;;;;;;;;;;5072346;28;20017;-91
2022/01/21 09:52:08;;;;;;;24.80;10.10;;;;;;;;;;5072425;28;20021;-91
2022/01/21 09:54:35;;;;;;;16.47;7.73;;;;;;;;;;5072751;28;20016;-91
2022/01/21 09:57:01;;;;;;;25.73;8.00;;;;;;;;;;5072445;28;20017;-91
2022/01/21 09:59:28;;;;;;;22.90;7.77;;;;;;;;;;5072299;28;20024;-90
2022/01/21 10:01:54;;;;;;;13.70;5.67;;;;;;;;;;5071875;28;20060;-90
2022/01/21 10:04:20;;;;;;;21.47;5.73;;;;;;;;;;5072628;28;20028;-90
2022/01/21 10:06:46;;;;;;;21.30;7.77;;;;;;;;;;5072401;28;20025;-90
2022/01/21 10:09:13;;;;;;;19.60;7.17;;;;;;;;;;5072491;28;20404;-90
2022/01/21 10:11:38;;;;;;;19.47;7.37;;;;;;;;;;5072404;28;20017;-90
2022/01/21 10:14:03;;;;;;;16.80;6.40;;;;;;;;;;5077296;28;20514;-90
2022/01/21 10:16:29;;;;;;;21.27;6.70;;;;;;;;;;5076354;28;20028;-90
2022/01/21 10:19:04;;;;;;;24.30;6.07;;;;;;;;;;5076133;28;20016;-90
2022/01/21 10:21:37;;;;;;;15.97;6.47;;;;;;;;;;5076045;28;20024;-91
2022/01/21 10:24:13;;;;;;;20.77;5.93;;;;;;;;;;5076363;28;20367;-90
2022/01/21 10:26:45;;;;;;;19.83;6.30;;;;;;;;;;5075867;28;20020;-90
2022/01/21 10:29:10;;;;;;;;;;;;;;;;;;5076446;28;20111;-90
2022/01/21 10:31:37;;;;;;;19.45;5.22;;;;;;;;;;5109846;28;19952;-90
2022/01/21 10:34:04;;;;;;;19.03;5.73;;;;;;;;;;5076302;28;20021;-91
2022/01/21 10:36:35;;;;;;;21.27;6.53;;;;;;;;;;5075994;28;20548;-91
2022/01/21 10:39:10;;;;;;;20.20;5.33;;;;;;;;;;5075919;28;20020;-91
2022/01/21 10:41:39;;;;;;;21.57;5.10;;;;;;;;;;5075811;28;20155;-91
2022/01/21 10:44:09;;;;;;;17.23;4.87;;;;;;;;;;5076830;28;20383;-91
2022/01/21 10:46:34;;;;;;;14.87;4.83;;;;;;;;;;5075843;28;20111;-92
2022/01/21 10:49:02;;;;;;;17.73;5.43;;;;;;;;;;5076306;28;20045;-93
2022/01/21 10:51:29;;;;;;;20.50;4.63;;;;;;;;;;5075774;28;20260;-92
2022/01/21 10:53:55;;;;;;;21.50;4.63;;;;;;;;;;5075964;28;20012;-92
2022/01/21 10:56:21;;;;;;;19.40;4.70;;;;;;;;;;5075325;28;20033;-92
2022/01/21 10:58:56;;;;;;;20.47;5.10;;;;;;;;;;5075562;28;20610;-91
2022/01/21 11:01:25;;;;;;;20.30;4.23;;;;;;;;;;5075753;28;20400;-92
2022/01/21 11:03:57;;;;;;;16.17;3.67;;;;;;;;;;5074446;28;20036;-92
2022/01/21 11:06:25;;;;;;;21.88;5.75;;;;;;;;;;5055317;28;20461;-92
2022/01/21 11:08:50;;;;;;;19.57;4.30;;;;;;;;;;5065642;28;20036;-92
2022/01/21 11:11:22;;;;;;;13.17;4.20;;;;;;;;;;5075224;28;20013;-92
2022/01/21 11:13:47;;;;;;;15.32;4.28;;;;;;;;;;5057197;28;20021;-92
2022/01/21 11:16:13;;;;;;;13.77;4.40;;;;;;;;;;5072048;28;20059;-92
2022/01/21 11:18:53;;;;;;;12.47;3.97;;;;;;;;;;5055346;28;20384;-92
2022/01/21 11:21:19;;;;;;;21.53;4.23;;;;;;;;;;5072237;28;20473;-92
2022/01/21 11:23:44;;;;;;;19.43;3.97;;;;;;;;;;5073839;28;20025;-92
2022/01/21 11:26:14;;;;;;;13.97;3.73;;;;;;;;;;5074733;28;20078;-92
2022/01/21 11:28:41;;;;;;;21.30;3.80;;;;;;;;;;5075051;28;20078;-92
2022/01/21 11:31:06;;;;;;;17.53;3.50;;;;;;;;;;5075165;28;20103;-92
2022/01/21 11:33:32;;;;;;;15.77;3.20;;;;;;;;;;5074805;28;20071;-92
2022/01/21 11:35:57;;;;;;;15.07;3.63;;;;;;;;;;5075040;28;20103;-92
2022/01/21 11:38:23;;;;;;;15.07;3.50;;;;;;;;;;5074358;28;20354;-92
2022/01/21 11:40:50;;;;;;;20.40;4.70;;;;;;;;;;5076189;28;20088;-92
2022/01/21 11:43:19;;;;;;;21.90;4.23;;;;;;;;;;5074737;28;20024;-92
2022/01/21 11:51:18;;;;;;;14.03;3.20;;;;;;;;;;5064627;28;20029;-93
2022/01/21 11:53:44;;;;;;;23.27;3.37;;;;;;;;;;5074473;28;20024;-92
2022/01/21 11:56:28;;;;;;;13.07;3.37;;;;;;;;;;5074876;28;20017;-92
2022/01/21 11:59:07;;;;;;;14.27;3.87;;;;;;;;;;5074423;28;20032;-91
2022/01/21 12:01:39;;;;;;;19.33;3.93;;;;;;;;;;5075402;28;20016;-90
2022/01/21 12:04:05;;;;;;;16.05;3.45;;;;;;;;;;5073838;28;20024;-90
2022/01/21 12:06:31;;;;;;;20.53;4.13;;;;;;;;;;5066229;28;20119;-91
2022/01/21 12:08:57;;;;;;;21.53;3.77;;;;;;;;;;5075155;28;20166;-91
2022/01/21 12:11:30;;;;;;;16.30;3.90;;;;;;;;;;5076638;28;20376;-91
2022/01/21 12:13:55;;;;;;;;;;;;;;;;;;5075552;28;20024;-92
2022/01/21 12:16:46;;;;;;;15.43;3.58;;;;;;;;;;5074883;28;19908;-91
2022/01/21 12:19:21;;;;;;;19.77;3.93;;;;;;;;;;5073201;28;20036;-92
2022/01/21 12:21:48;;;;;;;13.93;3.30;;;;;;;;;;5061737;28;20024;-91
2022/01/21 12:24:16;;;;;;;14.10;3.70;;;;;;;;;;5074310;28;20036;-91
2022/01/21 12:26:59;;;;;;;21.70;3.07;;;;;;;;;;5074126;28;20029;-91
2022/01/21 12:29:25;;;;;;;11.87;2.93;;;;;;;;;;5074663;28;20027;-92
2022/01/21 12:31:57;;;;;;;16.83;2.90;;;;;;;;;;5074220;28;20024;-91
2022/01/21 12:34:23;;;;;;;16.42;3.35;;;;;;;;;;5074336;28;20020;-91
2022/01/21 12:36:50;;;;;;;21.73;3.17;;;;;;;;;;5074271;28;20107;-92
2022/01/21 12:39:34;;;;;;;19.00;3.60;;;;;;;;;;5074291;28;20120;-91
2022/01/21 12:42:19;;;;;;;15.87;4.17;;;;;;;;;;5073872;28;20036;-91
2022/01/21 12:44:45;;;;;;;16.50;3.17;;;;;;;;;;5073994;28;20388;-90
2022/01/21 12:47:46;;;;;;;22.10;3.90;;;;;;;;;;5073836;28;20029;-91
2022/01/21 12:50:16;;;;;;;23.40;3.50;;;;;;;;;;4996351;28;20041;-91
2022/01/21 12:53:15;;;;;;;14.33;2.90;;;;;;;;;;5059206;28;20024;-92
2022/01/21 12:58:21;;;;;;;14.43;3.57;;;;;;;;;;5075277;28;20440;-92
2022/01/21 13:00:46;;;;;;;13.73;3.50;;;;;;;;;;5074001;28;20024;-92
2022/01/21 13:03:27;;;;;;;14.17;3.63;;;;;;;;;;5074864;28;20036;-91
2022/01/21 13:06:06;;;;;;;17.23;3.57;;;;;;;;;;5074230;28;20054;-91
2022/01/21 13:08:58;;;;;;;20.27;4.10;;;;;;;;;;5073835;28;20028;-92
2022/01/21 13:11:25;;;;;;;17.10;4.55;;;;;;;;;;5070596;28;20142;-91
2022/01/21 13:16:56;;;;;;;21.63;4.10;;;;;;;;;;4974252;28;20039;-91
2022/01/21 13:19:22;;;;;;;25.00;4.67;;;;;;;;;;5040706;28;20037;-91
2022/01/21 13:21:47;;;;;;;20.47;4.70;;;;;;;;;;5053558;28;20098;-92
2022/01/21 13:24:26;;;;;;;19.93;4.10;;;;;;;;;;5073395;28;20017;-92
2022/01/21 13:26:53;;;;;;;15.27;3.67;;;;;;;;;;5073203;28;20024;-92
2022/01/21 13:29:26;;;;;;;11.90;3.33;;;;;;;;;;5073149;28;20032;-92
2022/01/21 13:31:53;;;;;;;19.13;3.67;;;;;;;;;;5073221;28;20021;-92
2022/01/21 13:34:18;;;;;;;15.93;3.50;;;;;;;;;;5073219;28;20024;-92
2022/01/21 13:36:51;;;;;;;15.83;4.20;;;;;;;;;;5073945;28;20058;-91
2022/01/21 13:39:18;;;;;;;17.17;4.07;;;;;;;;;;5074523;28;20098;-91
2022/01/21 13:41:47;;;;;;;25.93;4.80;;;;;;;;;;5058484;28;20024;-92
2022/01/21 13:44:12;;;;;;;20.50;5.00;;;;;;;;;;5067214;28;20380;-91
2022/01/21 13:46:39;;;;;;;19.03;4.40;;;;;;;;;;5071933;28;20021;-91
2022/01/21 13:49:04;;;;;;;18.23;5.10;;;;;;;;;;5073917;28;20153;-91
2022/01/21 13:51:31;;;;;;;16.10;5.10;;;;;;;;;;5072664;28;20025;-91
2022/01/21 13:54:03;;;;;;;20.57;5.90;;;;;;;;;;5072634;28;20047;-92
2022/01/21 13:56:29;;;;;;;21.67;6.77;;;;;;;;;;5072657;28;20017;-91
2022/01/21 13:58:55;;;;;;;22.83;6.83;;;;;;;;;;5073721;28;20040;-92
2022/01/21 14:01:23;;;;;;;23.87;6.60;;;;;;;;;;5072564;28;20047;-92
2022/01/21 14:03:48;;;;;;;16.07;5.40;;;;;;;;;;5073713;28;20449;-90
2022/01/21 14:06:19;;;;;;;20.03;6.10;;;;;;;;;;5073147;28;20112;-90
2022/01/21 14:08:45;;;;;;;23.50;5.40;;;;;;;;;;5072454;28;20039;-90
2022/01/21 14:11:12;;;;;;;16.60;4.50;;;;;;;;;;5072151;28;20088;-91
2022/01/21 14:13:48;;;;;;;11.83;4.43;;;;;;;;;;5073617;28;20035;-91
2022/01/21 14:16:16;;;;;;;20.63;4.17;;;;;;;;;;5072424;28;20073;-92
2022/01/21 14:18:42;;;;;;;15.63;4.93;;;;;;;;;;5072169;28;20035;-91
2022/01/21 14:21:15;;;;;;;14.53;4.40;;;;;;;;;;5071226;28;20223;-91
2022/01/21 14:23:41;;;;;;;16.23;4.40;;;;;;;;;;5072144;28;20035;-91
2022/01/21 14:26:07;;;;;;;12.83;4.60;;;;;;;;;;5072545;28;20026;-90
2022/01/21 14:28:38;;;;;;;15.77;4.77;;;;;;;;;;5072218;28;20125;-90
2022/01/21 14:31:04;;;;;;;18.40;4.60;;;;;;;;;;5072104;28;20020;-91
2022/01/21 14:33:39;;;;;;;18.33;4.80;;;;;;;;;;5072187;28;20031;-91
2022/01/21 14:36:12;;;;;;;14.10;4.57;;;;;;;;;;5071896;28;20033;-91
2022/01/21 14:38:37;;;;;;;15.43;4.50;;;;;;;;;;5072249;28;20119;-91
2022/01/21 14:41:14;;;;;;;26.57;5.93;;;;;;;;;;5071360;28;20483;-91
2022/01/21 14:43:48;;;;;;;17.67;5.23;;;;;;;;;;5062057;28;20029;-91
2022/01/21 14:46:21;;;;;;;15.97;5.20;;;;;;;;;;5071922;28;20024;-91
2022/01/21 14:48:54;;;;;;;11.80;4.27;;;;;;;;;;5072075;28;20486;-91
2022/01/21 14:51:19;;;;;;;10.80;3.97;;;;;;;;;;5072141;28;20021;-91
2022/01/21 14:53:45;;;;;;;13.47;4.03;;;;;;;;;;5071999;28;20086;-91
2022/01/21 14:56:22;;;;;;;13.13;3.00;;;;;;;;;;5071630;28;20112;-91
2022/01/21 14:58:47;;;;;;;16.13;3.40;;;;;;;;;;5072607;28;20028;-92
2022/01/21 15:01:12;;;;;;;15.10;3.30;;;;;;;;;;5075740;28;20028;-92
2022/01/21 15:03:38;;;;;;;8.43;2.53;;;;;;;;;;5075460;28;20020;-91
2022/01/21 15:06:05;;;;;;;14.23;2.87;;;;;;;;;;5075352;28;20795;-91
2022/01/21 15:08:34;;;;;;;15.47;3.63;;;;;;;;;;5075489;28;20017;-92
2022/01/21 15:11:20;;;;;;;11.73;2.80;;;;;;;;;;5074820;28;20107;-92
2022/01/21 15:16:29;;;;;;;12.53;2.10;;;;;;;;;;5075159;28;20434;-91
2022/01/21 15:18:55;;;;;;;16.20;2.30;;;;;;;;;;5073692;28;20024;-91
2022/01/21 15:21:22;;;;;;;22.37;2.63;;;;;;;;;;5073659;28;20078;-91
2022/01/21 15:23:48;;;;;;;20.93;2.53;;;;;;;;;;5073424;28;20357;-92
2022/01/21 15:26:14;;;;;;;18.17;2.20;;;;;;;;;;5073960;28;20024;-91
2022/01/21 15:28:39;;;;;;;21.00;3.10;;;;;;;;;;5074930;28;20029;-91
2022/01/21 15:31:05;;;;;;;25.40;3.43;;;;;;;;;;5073579;28;20031;-92
2022/01/21 15:33:30;;;;;;;20.63;3.10;;;;;;;;;;5073159;28;20027;-91
2022/01/21 15:35:55;;;;;;;13.93;2.90;;;;;;;;;;5074543;28;20020;-91